Stockton, New Jersey
Current Conditions -  °F | °C
As of 4:54 PM on Thursday 23 Oct 2014 (Local Time) from KDYL Reporting Station
Overcast Overcast  
Wind Chill: 53°   Ceiling: 3000
Heat Index: 53°   Visibility: 10mi
Dew Point: 44°   Wind: 13mph
Humidity: 71%   Direction: 350°N
Pressure: 29.76"   Gusts: 21mph
Location:  40.41°N, 74.98°W
Report Text: KDYL 232054Z AUTO 35011G18KT 10SM BKN030 BKN038 OVC060 12/07 A2976 RMK AO2 PK WND 32026/2012 SLP080 T01170067 53001 $
Loading
Personal Weather Stations






























Interactive Weather Map
Tropical Storm Tracking
New forecast layout! Learn more

10-Day Weather Forecast

Advertisements
Track Severe Weather on mobile